Time;durP1;ratioP1;P1;durP2;ratioP2;P2;SDS_P1;SDS_P2;PMS_P1;PMS_P2;Temp;Humidity;BMP_temperature;BMP_pressure;BME280_temperature;BME280_humidity;BME280_pressure;Samples;Min_cycle;Max_cycle;Signal;HPM_P1;HPM_P2
2022/11/05 00:09:39;;;;;;;13.27;3.90;;;;;;;2.69;59.90;99952.78;4895679;28;20061;-64
2022/11/05 00:18:30;;;;;;;11.77;3.88;;;;;;;2.85;59.26;99970.19;4896732;28;20045;-65
2022/11/05 00:27:32;;;;;;;11.23;4.63;;;;;;;3.05;60.09;99966.94;4897645;28;20075;-62
2022/11/05 00:30:09;;;;;;;11.93;4.70;;;;;;;3.13;59.75;99965.28;4868150;28;20052;-63
2022/11/05 00:33:10;;;;;;;14.90;5.63;;;;;;;3.35;59.55;99967.19;4877938;28;20050;-63
2022/11/05 00:36:01;;;;;;;10.77;4.97;;;;;;;3.45;58.56;99973.28;4872129;28;20052;-64
2022/11/05 00:44:58;;;;;;;13.52;5.28;;;;;;;3.31;58.77;99960.25;4877142;28;20191;-65
2022/11/05 00:56:44;;;;;;;10.18;4.10;;;;;;;3.34;58.33;99955.09;4860383;28;20042;-65
2022/11/05 00:59:26;;;;;;;6.57;2.92;;;;;;;3.37;57.81;99960.31;4890040;28;20045;-65
2022/11/05 01:02:11;;;;;;;7.03;2.55;;;;;;;3.59;57.49;99963.03;4851297;28;20065;-65
2022/11/05 01:04:56;;;;;;;7.57;2.65;;;;;;;3.72;57.05;99962.28;4830803;28;20050;-64
2022/11/05 01:10:34;;;;;;;5.55;2.70;;;;;;;3.94;57.03;99957.25;4831652;28;20051;-67
2022/11/05 01:13:17;;;;;;;5.85;3.03;;;;;;;4.00;56.34;99952.97;4906292;28;20074;-65
2022/11/05 01:19:28;;;;;;;4.18;2.83;;;;;;;3.97;56.13;99946.91;4877253;28;20049;-65
2022/11/05 01:22:04;;;;;;;4.80;2.70;;;;;;;3.48;56.30;99853.63;4895738;28;20045;-65
2022/11/05 01:24:49;;;;;;;5.63;2.58;;;;;;;4.21;55.63;99941.84;4861480;28;20258;-66
2022/11/05 01:27:41;;;;;;;7.25;2.67;;;;;;;4.37;55.68;99949.66;4867615;28;20037;-65
2022/11/05 01:30:13;;;;;;;;;;;;;;;4.44;55.12;99948.84;4921487;28;20087;-65
2022/11/05 01:32:55;;;;;;;8.10;3.72;;;;;;;4.57;53.87;99950.63;4910558;28;19917;-65
2022/11/05 01:35:36;;;;;;;5.95;3.10;;;;;;;4.35;54.31;99928.13;4892853;28;20045;-64
2022/11/05 01:38:09;;;;;;;5.60;3.00;;;;;;;4.58;53.90;99942.00;4910472;28;20059;-65
2022/11/05 01:41:07;;;;;;;7.07;2.80;;;;;;;4.85;54.19;99946.38;4925985;28;20437;-66
2022/11/05 01:44:05;;;;;;;7.25;2.92;;;;;;;4.85;52.17;99933.44;4874304;28;20380;-66
2022/11/05 01:50:11;;;;;;;8.02;2.60;;;;;;;4.46;51.29;99932.47;4889364;28;20160;-66
2022/11/05 01:52:52;;;;;;;;;;;;;;;4.40;52.57;99936.78;4823964;28;20138;-65
2022/11/05 01:55:43;;;;;;;8.65;2.60;;;;;;;3.99;51.62;99894.34;4886904;28;19964;-65
2022/11/05 02:01:25;;;;;;;10.48;3.33;;;;;;;4.60;52.72;99922.16;4885662;28;20051;-65
2022/11/05 02:04:13;;;;;;;4.47;2.70;;;;;;;4.78;52.59;99871.31;4904225;28;20092;-64
2022/11/05 02:07:14;;;;;;;6.13;2.80;;;;;;;5.29;51.03;99913.59;4883889;28;20084;-65
2022/11/05 02:10:26;;;;;;;4.67;2.50;;;;;;;5.07;49.14;99890.31;4877502;28;20042;-64
2022/11/05 02:13:13;;;;;;;4.88;2.58;;;;;;;5.22;50.31;99909.25;4892802;28;20346;-64
2022/11/05 02:16:41;;;;;;;7.03;2.60;;;;;;;5.19;49.08;99890.31;4874454;28;20053;-65
2022/11/05 02:19:52;;;;;;;5.07;2.50;;;;;;;5.16;50.03;99879.91;4900946;28;20129;-65
2022/11/05 02:23:06;;;;;;;4.50;2.50;;;;;;;5.23;49.85;99882.53;4850372;28;20120;-65
2022/11/05 02:26:39;;;;;;;10.13;3.85;;;;;;;5.32;50.29;99874.75;4910794;28;20121;-64
2022/11/05 02:29:42;;;;;;;10.55;2.70;;;;;;;5.12;48.29;99875.63;4809979;28;20074;-64
2022/11/05 02:32:57;;;;;;;5.10;3.00;;;;;;;4.70;47.66;99869.56;4716125;29;20056;-64
2022/11/05 02:35:54;;;;;;;3.85;2.53;;;;;;;4.66;47.99;99873.00;4709130;29;20101;-64
2022/11/05 02:38:52;;;;;;;4.43;2.45;;;;;;;4.83;48.21;99861.81;4748332;29;20052;-64
2022/11/05 02:41:39;;;;;;;5.07;2.53;;;;;;;4.85;48.72;99848.00;4739621;29;20045;-64
2022/11/05 02:44:34;;;;;;;6.03;2.78;;;;;;;4.92;48.89;99854.06;4706271;29;20053;-64
2022/11/05 02:47:32;;;;;;;5.00;2.30;;;;;;;4.46;49.00;99753.09;4755521;29;20402;-66
2022/11/05 02:50:31;;;;;;;5.75;2.33;;;;;;;5.28;48.97;99847.09;4723521;29;20069;-66
2022/11/05 02:53:35;;;;;;;5.25;2.50;;;;;;;5.46;47.83;99857.44;4728330;29;20059;-66
2022/11/05 02:56:23;;;;;;;6.95;2.50;;;;;;;5.55;47.91;99862.59;4735712;29;20125;-65
2022/11/05 02:59:06;;;;;;;5.53;2.38;;;;;;;5.57;48.34;99871.25;4747672;28;20126;-67
2022/11/05 03:01:53;;;;;;;3.90;2.30;;;;;;;5.55;48.64;99847.06;4870952;28;20059;-65
2022/11/05 03:04:47;;;;;;;5.30;2.50;;;;;;;5.63;48.84;99853.06;4848082;28;20057;-66
2022/11/05 03:07:41;;;;;;;6.90;3.10;;;;;;;5.24;48.60;99850.56;4795274;28;21006;-67
2022/11/05 03:10:57;;;;;;;5.82;2.38;;;;;;;5.12;48.86;99861.81;4877954;28;20044;-65
2022/11/05 03:13:40;;;;;;;5.05;2.10;;;;;;;4.82;49.15;99832.47;4856156;28;20045;-65
2022/11/05 03:16:26;;;;;;;5.10;2.90;;;;;;;4.82;49.87;99842.84;4904909;28;20060;-66
2022/11/05 03:19:29;;;;;;;;;;;;;;;4.98;50.14;99856.63;4911550;28;20135;-63
2022/11/05 03:22:16;;;;;;;3.83;2.42;;;;;;;4.90;49.91;99846.28;4910366;28;19925;-65
2022/11/05 03:25:14;;;;;;;6.82;2.55;;;;;;;4.91;51.01;99844.53;4896953;28;20202;-66
2022/11/05 03:28:05;;;;;;;4.00;2.47;;;;;;;5.03;50.88;99852.31;4905724;28;20101;-66
2022/11/05 03:31:08;;;;;;;4.05;2.10;;;;;;;5.18;49.83;99841.94;4883601;28;20052;-66
2022/11/05 03:34:11;;;;;;;3.88;2.20;;;;;;;5.34;50.33;99836.72;4909971;28;20397;-66
2022/11/05 03:37:04;;;;;;;4.70;2.58;;;;;;;5.53;50.98;99838.41;4915525;28;20038;-65
2022/11/05 03:39:44;;;;;;;5.57;2.72;;;;;;;5.46;50.88;99836.69;4915515;28;20045;-66
2022/11/05 03:42:34;;;;;;;5.45;2.58;;;;;;;5.33;50.48;99827.25;4901501;28;20048;-67
2022/11/05 03:45:31;;;;;;;8.55;2.17;;;;;;;4.98;51.40;99823.81;4904436;28;20071;-66
2022/11/05 03:48:21;;;;;;;4.55;2.58;;;;;;;4.74;51.14;99823.81;4837676;28;20049;-65
2022/11/05 03:51:22;;;;;;;4.28;2.80;;;;;;;4.58;52.21;99807.44;4902948;28;20096;-64
2022/11/05 03:53:57;;;;;;;5.60;2.75;;;;;;;4.48;52.14;99800.53;4908972;28;20221;-64
2022/11/05 03:56:43;;;;;;;5.28;2.63;;;;;;;4.46;52.67;99822.94;4896300;28;20116;-64
2022/11/05 03:59:51;;;;;;;2.92;1.90;;;;;;;4.33;52.30;99810.00;4900932;28;20056;-64
2022/11/05 04:02:48;;;;;;;6.47;2.60;;;;;;;4.37;53.38;99812.56;4914042;28;20079;-63
2022/11/05 04:05:39;;;;;;;5.70;2.30;;;;;;;4.44;53.95;99807.44;4890565;28;20065;-64
2022/11/05 04:14:25;;;;;;;3.47;2.30;;;;;;;4.35;53.64;99804.84;4895142;28;20052;-63
2022/11/05 04:17:08;;;;;;;6.50;3.25;;;;;;;4.21;52.86;99817.72;4872829;28;20041;-63
2022/11/05 04:26:00;;;;;;;4.40;2.15;;;;;;;4.16;53.22;99808.25;4905637;28;20052;-64
2022/11/05 04:32:07;;;;;;;19.48;6.47;;;;;;;4.03;53.10;99807.34;4899021;28;20055;-64
2022/11/05 04:35:00;;;;;;;7.38;3.50;;;;;;;3.97;52.69;99810.78;4898505;28;20061;-64
2022/11/05 04:37:51;;;;;;;11.98;5.43;;;;;;;3.82;52.86;99814.19;4949381;28;20074;-65
2022/11/05 04:40:36;;;;;;;7.28;3.75;;;;;;;3.75;53.18;99812.44;4913481;28;20080;-64
2022/11/05 04:49:12;;;;;;;8.55;2.47;;;;;;;3.33;55.68;99819.09;4881650;28;20492;-64
2022/11/05 04:52:12;;;;;;;5.50;2.65;;;;;;;3.30;55.98;99824.25;4917556;28;20261;-64
2022/11/05 04:54:59;;;;;;;6.78;2.45;;;;;;;3.51;56.47;99822.66;4909466;28;20069;-63
2022/11/05 04:58:00;;;;;;;5.03;2.25;;;;;;;3.65;55.41;99826.16;4891452;28;20057;-63
2022/11/05 05:00:55;;;;;;;4.15;2.30;;;;;;;3.67;54.04;99819.28;4906675;28;20097;-64
2022/11/05 05:03:42;;;;;;;9.48;3.05;;;;;;;3.57;53.74;99833.88;4901889;28;20045;-64
2022/11/05 05:06:25;;;;;;;5.20;2.58;;;;;;;3.59;53.92;99820.94;4883071;28;20215;-63
2022/11/05 05:09:12;;;;;;;5.07;1.77;;;;;;;3.63;54.65;99822.72;4875154;28;20041;-64
2022/11/05 05:11:51;;;;;;;3.42;1.80;;;;;;;3.73;55.44;99824.47;4888072;28;20045;-63
2022/11/05 05:17:39;;;;;;;26.63;8.85;;;;;;;3.80;55.13;99826.22;4905413;28;20049;-63
2022/11/05 05:23:37;;;;;;;12.02;6.43;;;;;;;3.78;55.58;99817.59;4909123;28;20476;-63
2022/11/05 05:26:41;;;;;;;9.50;4.65;;;;;;;3.81;54.46;99840.00;4883955;28;20947;-64
2022/11/05 05:29:25;;;;;;;49.72;28.23;;;;;;;3.74;53.97;99841.69;4915690;28;20045;-63
2022/11/05 05:32:29;;;;;;;11.68;8.10;;;;;;;3.78;54.20;99843.44;4859512;28;20058;-62
2022/11/05 05:35:11;;;;;;;11.32;6.70;;;;;;;3.86;54.86;99840.88;4889627;28;20108;-62
2022/11/05 05:37:48;;;;;;;9.98;5.10;;;;;;;3.86;55.18;99846.91;4880430;28;20053;-64
2022/11/05 05:40:31;;;;;;;5.95;3.03;;;;;;;3.92;55.74;99845.22;4898482;28;20045;-64
2022/11/05 05:43:30;;;;;;;12.30;6.53;;;;;;;4.01;55.76;99843.53;4890609;28;20478;-64
2022/11/05 05:46:21;;;;;;;6.43;3.30;;;;;;;4.02;55.42;99852.13;4893634;28;20045;-65
2022/11/05 05:49:16;;;;;;;6.28;2.10;;;;;;;3.91;55.47;99846.09;4877759;28;20053;-64
2022/11/05 05:52:11;;;;;;;4.97;2.10;;;;;;;3.82;54.57;99865.88;4878162;28;20069;-63
2022/11/05 05:54:54;;;;;;;9.80;3.72;;;;;;;3.73;53.94;99860.66;4880297;28;20039;-63
2022/11/05 05:57:33;;;;;;;6.85;4.03;;;;;;;3.72;53.71;99864.09;4902027;28;20049;-65
2022/11/05 06:00:33;;;;;;;8.48;4.05;;;;;;;3.66;54.44;99861.47;4889107;28;20068;-64
2022/11/05 06:03:15;;;;;;;7.20;4.20;;;;;;;3.69;54.85;99858.91;4865334;28;20071;-63
2022/11/05 06:06:04;;;;;;;8.68;4.60;;;;;;;3.63;54.79;99853.72;4897405;28;20257;-63
2022/11/05 06:08:46;;;;;;;9.68;4.88;;;;;;;3.53;53.73;99862.28;4902166;28;20046;-63
2022/11/05 06:11:20;;;;;;;5.28;2.83;;;;;;;3.34;54.16;99859.56;4910510;28;20072;-63
2022/11/05 06:20:06;;;;;;;3.80;2.20;;;;;;;3.24;54.21;99886.16;4862934;28;20041;-63
2022/11/05 06:22:42;;;;;;;11.70;4.60;;;;;;;3.17;54.32;99884.41;4859513;28;20056;-63
2022/11/05 06:25:34;;;;;;;6.95;3.00;;;;;;;3.10;54.53;99888.66;4869450;28;20108;-64
2022/11/05 06:28:19;;;;;;;14.00;4.50;;;;;;;2.97;54.24;99884.25;4862071;28;20327;-64
2022/11/05 06:30:57;;;;;;;5.78;2.85;;;;;;;2.94;54.92;99897.13;4848618;28;20061;-64
2022/11/05 06:33:46;;;;;;;6.57;3.42;;;;;;;2.87;54.57;99896.22;4873011;28;20072;-63
2022/11/05 06:36:32;;;;;;;5.35;2.47;;;;;;;2.78;53.59;99901.28;4820444;28;20310;-64
2022/11/05 06:39:17;;;;;;;8.52;2.58;;;;;;;2.73;53.58;99897.81;4855823;28;20055;-63
2022/11/05 06:42:04;;;;;;;14.90;8.63;;;;;;;2.64;53.46;99902.88;4845642;28;20062;-63
2022/11/05 06:45:10;;;;;;;8.60;4.32;;;;;;;2.58;54.11;99899.38;4858234;28;20065;-63
2022/11/05 06:50:36;;;;;;;6.18;2.80;;;;;;;2.37;53.88;99893.97;4900889;28;20611;-63
2022/11/05 06:53:28;;;;;;;6.30;2.08;;;;;;;2.33;54.10;99897.41;4851751;28;20041;-63
2022/11/05 06:56:26;;;;;;;5.57;2.80;;;;;;;2.28;54.69;99893.91;4851251;28;20481;-63
2022/11/05 06:59:01;;;;;;;;;;;;;;;2.24;54.67;99884.41;4898622;28;20063;-64
2022/11/05 07:01:54;;;;;;;4.82;2.28;;;;;;;2.27;55.27;99892.16;4905634;28;19975;-63
2022/11/05 07:04:28;;;;;;;12.52;5.15;;;;;;;2.24;55.06;99889.56;4893939;28;20045;-61
2022/11/05 07:07:19;;;;;;;12.75;6.68;;;;;;;2.20;55.32;99890.34;4889507;28;20053;-62
2022/11/05 07:10:07;;;;;;;10.55;2.90;;;;;;;2.19;55.97;99888.63;4908186;28;20057;-62
2022/11/05 07:15:48;;;;;;;76.07;39.97;;;;;;;2.14;56.92;99897.16;4898163;28;20124;-63
2022/11/05 07:18:54;;;;;;;13.48;10.18;;;;;;;2.10;57.11;99900.56;4913646;28;20116;-63
2022/11/05 07:21:36;;;;;;;7.15;3.30;;;;;;;2.03;57.68;99903.91;4832794;28;20116;-63
2022/11/05 07:24:15;;;;;;;7.35;4.57;;;;;;;1.94;57.87;99893.50;4888332;28;20041;-63
2022/11/05 07:26:52;;;;;;;10.57;4.60;;;;;;;1.88;57.82;99898.56;4890831;28;20052;-64
2022/11/05 07:29:33;;;;;;;16.13;4.70;;;;;;;1.86;58.30;99905.41;4869042;28;20134;-63
2022/11/05 07:35:01;;;;;;;8.07;3.35;;;;;;;1.82;58.17;99908.78;4920248;28;20052;-63
2022/11/05 07:37:55;;;;;;;16.15;4.85;;;;;;;1.81;58.62;99907.06;4895852;28;20062;-64
2022/11/05 07:43:40;;;;;;;6.45;3.05;;;;;;;1.83;58.91;99910.53;4910306;28;20045;-64
2022/11/05 07:46:24;;;;;;;9.98;4.30;;;;;;;1.85;59.04;99906.28;4896238;28;20148;-64
2022/11/05 07:49:04;;;;;;;15.25;5.57;;;;;;;1.75;58.71;99897.56;4890487;28;20078;-64
2022/11/05 07:51:59;;;;;;;46.33;23.20;;;;;;;1.76;59.05;99909.56;4882449;28;20164;-64
2022/11/05 07:54:58;;;;;;;18.10;10.35;;;;;;;1.72;59.36;99908.69;4846003;28;21105;-64
2022/11/05 07:58:06;;;;;;;12.95;7.13;;;;;;;1.76;59.72;99913.88;4903971;28;20044;-65
2022/11/05 08:00:59;;;;;;;18.30;6.57;;;;;;;1.75;59.68;99917.28;4881217;28;20049;-64
2022/11/05 08:03:39;;;;;;;66.18;19.42;;;;;;;1.76;59.84;99919.03;4886067;28;20049;-65
2022/11/05 08:06:19;;;;;;;143.15;55.78;;;;;;;1.76;60.23;99919.03;4890255;28;20116;-64
2022/11/05 08:09:02;;;;;;;14.30;6.75;;;;;;;1.73;60.11;99912.97;4904656;28;20398;-65
2022/11/05 08:11:49;;;;;;;15.65;6.05;;;;;;;1.73;59.96;99923.28;4903623;28;20129;-64
2022/11/05 08:14:50;;;;;;;15.50;5.78;;;;;;;1.44;60.21;99865.34;4857189;28;20081;-64
2022/11/05 08:17:33;;;;;;;11.25;5.18;;;;;;;1.75;60.23;99912.13;4875723;28;20093;-64
2022/11/05 08:20:13;;;;;;;11.60;3.97;;;;;;;1.76;60.38;99908.72;4891881;28;20518;-65
2022/11/05 08:25:53;;;;;;;12.80;5.20;;;;;;;1.79;60.64;99914.75;4828196;28;20045;-64
2022/11/05 08:29:02;;;;;;;11.15;4.53;;;;;;;1.80;60.22;99910.47;4890454;28;20167;-65
2022/11/05 08:31:47;;;;;;;14.50;7.28;;;;;;;1.54;60.45;99867.22;4865856;28;20371;-64
2022/11/05 08:34:30;;;;;;;28.45;13.77;;;;;;;1.83;60.54;99911.41;4911317;28;20063;-64
2022/11/05 08:37:04;;;;;;;24.23;15.82;;;;;;;1.85;60.37;99908.84;4884230;28;20056;-64
2022/11/05 08:39:51;;;;;;;83.60;36.03;;;;;;;1.83;60.55;99910.53;4919072;28;20458;-64
2022/11/05 08:42:30;;;;;;;68.93;29.27;;;;;;;1.86;60.35;99913.16;4886276;28;20108;-64
2022/11/05 08:45:23;;;;;;;78.32;32.08;;;;;;;1.87;60.47;99912.28;4912000;28;20048;-64
2022/11/05 08:48:07;;;;;;;40.35;21.17;;;;;;;1.86;60.67;99910.56;4914489;28;20390;-65
2022/11/05 08:50:53;;;;;;;18.65;10.07;;;;;;;1.86;60.62;99913.16;4907935;28;20045;-64
2022/11/05 08:53:41;;;;;;;11.02;6.68;;;;;;;1.93;60.42;99922.69;4900284;28;20478;-65
2022/11/05 08:56:24;;;;;;;11.57;5.55;;;;;;;1.93;60.74;99917.53;4905602;28;20045;-65
2022/11/05 08:59:18;;;;;;;15.65;5.90;;;;;;;1.90;60.52;99922.66;4889012;28;20957;-65
2022/11/05 09:02:39;;;;;;;19.00;10.02;;;;;;;1.82;61.07;99895.91;4897629;28;20203;-66
2022/11/05 09:22:00;;;;;;;25.67;10.02;;;;;;;1.79;61.33;99924.22;4806502;28;20101;-66
2022/11/05 09:24:38;;;;;;;13.65;6.70;;;;;;;1.78;60.93;99917.34;4804493;28;20053;-66
2022/11/05 09:27:17;;;;;;;17.75;7.97;;;;;;;1.43;60.93;99868.78;4847087;28;20053;-66
2022/11/05 09:33:13;;;;;;;17.95;8.40;;;;;;;1.79;60.98;99924.22;4792644;28;20061;-69
2022/11/05 09:36:28;;;;;;;68.78;22.95;;;;;;;1.79;61.21;99924.22;4772988;28;20059;-66
2022/11/05 09:39:09;;;;;;;36.78;14.38;;;;;;;1.71;61.27;99893.19;4792277;28;20060;-67
2022/11/05 09:41:55;;;;;;;35.55;16.13;;;;;;;1.80;61.10;99910.47;4773134;28;20105;-67
2022/11/05 09:47:37;;;;;;;24.52;10.38;;;;;;;1.88;61.47;99919.19;4827355;28;20052;-66
2022/11/05 09:50:32;;;;;;;39.15;15.07;;;;;;;1.78;61.04;99907.91;4830829;28;20113;-67
2022/11/05 09:53:33;;;;;;;65.20;26.48;;;;;;;1.83;61.50;99920.84;4837625;28;20092;-66
2022/11/05 09:56:29;;;;;;;41.88;16.20;;;;;;;1.85;61.26;99920.00;4838265;28;20553;-66
2022/11/05 09:59:09;;;;;;;40.08;13.80;;;;;;;1.89;61.53;99926.06;4834198;28;20504;-66
2022/11/05 10:01:47;;;;;;;19.58;8.60;;;;;;;1.88;61.07;99929.50;4861987;28;20522;-65
2022/11/05 10:04:36;;;;;;;21.77;9.10;;;;;;;1.87;61.20;99938.06;4873892;28;20096;-65
2022/11/05 10:07:23;;;;;;;20.10;8.10;;;;;;;1.86;60.87;99937.19;4864532;28;20053;-65
2022/11/05 10:10:07;;;;;;;55.35;18.05;;;;;;;1.86;61.26;99933.75;4904834;28;20076;-66
2022/11/05 10:12:57;;;;;;;54.65;17.05;;;;;;;1.95;60.91;99951.94;4902328;28;20045;-65
2022/11/05 10:15:36;;;;;;;32.05;11.45;;;;;;;1.96;60.54;99957.94;4900338;28;20052;-66
2022/11/05 10:18:17;;;;;;;115.90;35.03;;;;;;;1.98;60.45;99962.28;4875895;28;20092;-66
2022/11/05 10:20:57;;;;;;;107.55;29.25;;;;;;;1.90;60.87;99958.72;4901834;28;20076;-66
2022/11/05 10:23:45;;;;;;;57.78;15.85;;;;;;;1.99;61.34;99969.13;4903688;28;20053;-66
2022/11/05 10:29:55;;;;;;;26.45;8.40;;;;;;;2.02;62.31;99968.31;4869818;28;20042;-66
2022/11/05 10:32:41;;;;;;;23.70;8.07;;;;;;;2.00;62.64;99970.88;4852773;28;20037;-65
2022/11/05 10:35:27;;;;;;;23.48;7.07;;;;;;;1.97;63.22;99970.81;4860422;28;20065;-65
2022/11/05 10:38:01;;;;;;;23.60;7.90;;;;;;;1.89;63.74;99951.81;4882741;28;20053;-65
2022/11/05 10:40:55;;;;;;;12.15;5.00;;;;;;;1.88;64.34;99952.69;4900724;28;20620;-65
2022/11/05 10:43:46;;;;;;;14.70;4.15;;;;;;;1.81;65.31;99958.59;4857959;28;20098;-66
2022/11/05 10:46:58;;;;;;;12.88;3.90;;;;;;;1.69;66.28;99970.44;4871542;28;20054;-65
2022/11/05 10:49:53;;;;;;;10.93;4.78;;;;;;;1.59;66.96;99978.88;4882152;28;20053;-66
2022/11/05 10:52:57;;;;;;;9.32;3.63;;;;;;;0.84;67.32;99847.28;4854231;28;20067;-66
2022/11/05 10:55:51;;;;;;;6.35;3.55;;;;;;;1.45;67.21;99949.50;4836229;28;20055;-65
2022/11/05 10:58:28;;;;;;;8.90;3.78;;;;;;;1.50;67.82;99953.00;4900822;28;20068;-65
2022/11/05 11:01:14;;;;;;;11.75;4.57;;;;;;;1.67;68.09;99972.16;4895430;28;20087;-66
2022/11/05 11:04:17;;;;;;;42.05;13.48;;;;;;;1.70;67.77;99966.19;4919695;28;20037;-66
2022/11/05 11:06:59;;;;;;;16.42;6.90;;;;;;;1.63;67.78;99966.91;4898498;28;20096;-66
2022/11/05 11:09:34;;;;;;;15.43;5.25;;;;;;;1.63;68.54;99965.22;4906135;28;20048;-66
2022/11/05 11:12:31;;;;;;;27.10;8.20;;;;;;;1.53;68.78;99963.34;4910677;28;20064;-66
2022/11/05 11:15:24;;;;;;;16.65;6.15;;;;;;;1.54;69.13;99965.06;4866909;28;20111;-66
2022/11/05 11:18:22;;;;;;;14.23;5.70;;;;;;;1.64;69.07;99987.53;4904910;28;20053;-67
2022/11/05 11:21:12;;;;;;;11.27;4.82;;;;;;;1.67;69.40;99992.75;4836547;28;20057;-66
2022/11/05 11:26:53;;;;;;;13.43;4.80;;;;;;;1.50;70.37;99991.63;4912289;28;20103;-66
2022/11/05 11:29:45;;;;;;;8.35;3.65;;;;;;;1.46;70.95;99982.09;4906432;28;20373;-66
2022/11/05 11:32:30;;;;;;;9.23;4.07;;;;;;;0.89;71.05;99890.25;4899247;28;20037;-66
2022/11/05 11:35:14;;;;;;;13.82;3.80;;;;;;;1.37;71.61;99974.22;4894602;28;20080;-66
2022/11/05 11:38:01;;;;;;;14.43;4.45;;;;;;;0.69;71.37;99867.63;4890373;28;20049;-65
2022/11/05 11:40:53;;;;;;;6.90;4.18;;;;;;;1.45;71.94;99990.69;4832032;28;20050;-65
2022/11/05 11:43:41;;;;;;;6.00;3.22;;;;;;;1.44;71.93;99994.09;4901932;28;20610;-66
2022/11/05 11:46:20;;;;;;;7.88;3.58;;;;;;;1.42;72.17;99998.34;4875856;28;20357;-66
2022/11/05 11:48:58;;;;;;;5.38;3.67;;;;;;;1.45;72.30;99990.69;4896059;28;20061;-66
2022/11/05 11:51:43;;;;;;;13.85;6.07;;;;;;;1.39;72.20;99975.13;4880956;28;20040;-66
2022/11/05 11:57:34;;;;;;;18.98;8.07;;;;;;;1.43;72.66;99987.22;4832178;28;20058;-66
2022/11/05 12:00:10;;;;;;;17.58;6.57;;;;;;;1.37;72.48;99981.94;4893281;28;20041;-66
2022/11/05 12:03:00;;;;;;;26.30;11.93;;;;;;;1.38;72.24;99994.84;4910184;28;20049;-64
2022/11/05 12:05:47;;;;;;;11.07;4.90;;;;;;;1.31;71.58;100002.44;4882563;28;20105;-64
2022/11/05 12:08:54;;;;;;;11.93;6.32;;;;;;;1.28;71.80;99993.84;4904277;28;20442;-65
2022/11/05 12:11:52;;;;;;;12.10;6.50;;;;;;;1.32;72.15;99986.16;4882142;28;20061;-64
2022/11/05 12:14:43;;;;;;;12.50;6.47;;;;;;;1.13;71.92;99962.69;4917498;28;20048;-65
2022/11/05 12:17:41;;;;;;;12.77;6.07;;;;;;;1.28;72.11;99975.81;4877119;28;20083;-66
2022/11/05 12:20:30;;;;;;;14.45;6.07;;;;;;;1.25;72.25;99972.34;4898167;28;20041;-66
2022/11/05 12:23:10;;;;;;;;;;;;;;;1.20;72.65;99969.69;4898803;28;20100;-65
2022/11/05 12:26:02;;;;;;;13.43;5.95;;;;;;;1.06;72.71;99955.72;4883670;28;19953;-65
2022/11/05 12:29:16;;;;;;;11.98;5.25;;;;;;;1.13;73.19;99975.56;4834104;28;20452;-65
2022/11/05 12:32:07;;;;;;;9.93;4.90;;;;;;;1.15;73.41;99971.31;4895005;28;20104;-66
2022/11/05 12:34:52;;;;;;;12.77;6.10;;;;;;;1.15;73.86;99975.56;4900640;28;20321;-66
2022/11/05 12:37:42;;;;;;;12.88;6.93;;;;;;;1.18;74.05;99976.50;4923395;28;20074;-66
2022/11/05 12:40:56;;;;;;;13.43;6.80;;;;;;;1.14;74.27;99977.28;4899604;28;20112;-66
2022/11/05 12:43:44;;;;;;;12.38;5.78;;;;;;;1.14;74.43;99976.41;4872782;28;20123;-66
2022/11/05 12:46:36;;;;;;;12.63;7.00;;;;;;;0.54;74.67;99904.22;4811483;28;20081;-66
2022/11/05 12:49:38;;;;;;;10.93;6.60;;;;;;;1.11;74.82;99974.66;4827282;28;20212;-65
2022/11/05 12:52:37;;;;;;;12.50;5.70;;;;;;;1.11;75.10;99979.81;4878778;28;20571;-66
2022/11/05 12:55:21;;;;;;;11.98;5.55;;;;;;;1.08;74.96;99974.63;4875533;28;20060;-66
2022/11/05 12:58:02;;;;;;;10.35;4.97;;;;;;;0.96;75.27;99958.97;4911088;28;20063;-66
2022/11/05 13:00:47;;;;;;;9.60;5.18;;;;;;;1.03;75.97;99971.09;4893022;28;20080;-66
2022/11/05 13:03:33;;;;;;;;;;;;;;;1.04;75.96;99972.81;4893676;28;20078;-65
2022/11/05 13:06:19;;;;;;;9.93;4.63;;;;;;;1.06;75.92;99982.31;4914271;28;19925;-66
2022/11/05 13:09:01;;;;;;;10.40;4.45;;;;;;;0.08;76.56;99804.88;4910739;28;20048;-66
2022/11/05 13:11:53;;;;;;;8.82;4.25;;;;;;;1.00;77.23;99966.78;4921312;28;20111;-66
2022/11/05 13:14:36;;;;;;;8.18;4.45;;;;;;;0.92;78.25;99972.59;4887997;28;20538;-66
2022/11/05 13:17:20;;;;;;;6.40;3.92;;;;;;;0.84;79.16;99975.91;4874086;28;20044;-66
2022/11/05 13:20:04;;;;;;;6.40;3.80;;;;;;;0.76;80.32;99962.03;4913414;28;20048;-65
2022/11/05 13:23:06;;;;;;;6.43;4.50;;;;;;;0.70;81.45;99956.81;4884257;28;20050;-66
2022/11/05 13:25:54;;;;;;;6.68;4.00;;;;;;;0.71;82.47;99958.53;4893662;28;20065;-66
2022/11/05 13:28:39;;;;;;;8.20;4.00;;;;;;;0.69;82.95;99949.03;4870206;28;21424;-67
2022/11/05 13:31:34;;;;;;;7.07;3.90;;;;;;;0.69;83.42;99944.75;4873479;28;20140;-66
2022/11/05 13:34:20;;;;;;;6.82;3.60;;;;;;;0.75;83.90;99950.03;4902259;28;20045;-66
2022/11/05 13:40:16;;;;;;;7.82;4.30;;;;;;;0.80;83.77;99966.41;4876471;28;20289;-66
2022/11/05 13:43:14;;;;;;;7.32;3.88;;;;;;;0.75;83.83;99962.91;4898453;28;20159;-67
2022/11/05 13:46:32;;;;;;;5.65;3.40;;;;;;;0.65;83.75;99971.28;4881809;28;20041;-67
2022/11/05 13:49:37;;;;;;;7.22;3.50;;;;;;;0.61;84.34;99966.91;4860926;28;20089;-67
2022/11/05 13:52:51;;;;;;;5.60;3.40;;;;;;;0.49;84.03;99966.66;4867243;28;20054;-66
2022/11/05 13:56:02;;;;;;;6.78;3.45;;;;;;;0.39;84.37;99971.63;4875510;28;20053;-66
2022/11/05 13:59:27;;;;;;;5.22;3.55;;;;;;;0.30;84.36;99966.31;4876196;28;20534;-66
2022/11/05 14:05:08;;;;;;;6.03;4.07;;;;;;;0.35;84.90;99989.50;4865929;28;20041;-66
2022/11/05 14:07:50;;;;;;;4.65;3.33;;;;;;;0.30;84.45;99981.72;4876656;28;20527;-65
2022/11/05 14:13:43;;;;;;;6.82;3.63;;;;;;;0.28;84.89;99988.53;4859493;28;19951;-65
2022/11/05 14:19:55;;;;;;;9.77;4.07;;;;;;;0.42;84.41;99984.56;4867046;28;20084;-65
2022/11/05 14:22:52;;;;;;;6.13;3.55;;;;;;;0.31;83.15;99965.47;4780405;28;20059;-66
2022/11/05 14:26:00;;;;;;;5.35;3.92;;;;;;;0.30;82.74;99984.31;4829689;28;20062;-66
2022/11/05 14:28:52;;;;;;;9.13;4.55;;;;;;;0.22;82.04;99985.81;4809196;28;20051;-66
2022/11/05 14:31:46;;;;;;;9.80;4.60;;;;;;;0.18;82.32;99996.88;4815229;28;20081;-65
2022/11/05 14:34:54;;;;;;;9.88;4.78;;;;;;;0.14;82.40;99995.94;4811668;28;20059;-65
2022/11/05 14:37:36;;;;;;;5.85;3.78;;;;;;;0.20;82.73;99990.94;4848474;28;20311;-65
2022/11/05 14:40:34;;;;;;;;;;;;;;;0.19;82.44;99999.47;4833438;28;20051;-65
2022/11/05 14:43:25;;;;;;;8.70;4.80;;;;;;;0.20;83.35;99990.06;4832571;28;20541;-65
2022/11/05 14:46:04;;;;;;;9.10;4.57;;;;;;;0.19;83.74;99993.47;4823592;28;20049;-65
2022/11/05 14:48:45;;;;;;;8.10;4.43;;;;;;;0.22;84.10;99998.66;4825320;28;20047;-65
2022/11/05 14:51:38;;;;;;;9.57;4.93;;;;;;;0.23;83.92;99995.28;4810597;28;20175;-65
2022/11/05 14:54:45;;;;;;;13.10;4.88;;;;;;;0.17;83.67;99984.84;4837701;28;20439;-65
2022/11/05 14:57:57;;;;;;;10.07;5.20;;;;;;;0.10;83.42;99972.72;4884225;28;20623;-65
2022/11/05 15:01:07;;;;;;;10.27;4.70;;;;;;;0.10;82.21;99983.88;4898563;28;20082;-65
2022/11/05 15:04:39;;;;;;;9.63;4.60;;;;;;;0.09;81.59;99969.28;4900459;28;20052;-65
2022/11/05 15:07:48;;;;;;;11.77;5.35;;;;;;;0.18;80.09;99982.34;4788821;28;20050;-64
2022/11/05 15:10:33;;;;;;;11.27;5.35;;;;;;;0.18;79.14;99982.34;4766386;29;20052;-65
2022/11/05 15:13:41;;;;;;;13.25;5.75;;;;;;;0.13;78.51;99983.09;4811520;28;20057;-64
2022/11/05 15:16:24;;;;;;;10.77;5.30;;;;;;;0.18;78.51;99996.88;4806238;28;20092;-65
2022/11/05 15:19:10;;;;;;;10.45;4.75;;;;;;;0.12;77.09;99991.59;4784997;29;20047;-65
2022/11/05 15:24:43;;;;;;;9.50;4.60;;;;;;;0.00;75.24;99992.22;4790910;28;20072;-65
2022/11/05 15:27:25;;;;;;;9.43;5.03;;;;;;;0.05;75.34;99995.75;4743984;29;20047;-65
2022/11/05 15:30:08;;;;;;;8.50;4.90;;;;;;;0.03;74.60;99976.00;4803385;28;20051;-65
2022/11/05 15:32:53;;;;;;;8.50;4.55;;;;;;;-0.02;74.32;99969.06;4808272;28;20055;-65
2022/11/05 15:35:40;;;;;;;14.00;5.10;;;;;;;0.12;73.73;99991.59;4837410;28;20058;-64
2022/11/05 15:38:32;;;;;;;8.63;4.22;;;;;;;0.08;72.06;100000.09;4793812;28;20167;-65
2022/11/05 15:41:17;;;;;;;7.50;4.00;;;;;;;-0.09;71.57;99992.03;4818137;28;20056;-65
2022/11/05 15:43:57;;;;;;;10.45;4.55;;;;;;;-0.04;71.36;100000.69;4810351;28;20043;-64
2022/11/05 15:46:38;;;;;;;8.95;4.60;;;;;;;-0.14;71.22;99984.22;4852512;28;20113;-65
2022/11/05 15:49:23;;;;;;;10.95;4.55;;;;;;;-0.04;70.54;100001.56;4875136;28;20050;-65
2022/11/05 15:54:49;;;;;;;7.95;4.38;;;;;;;-0.15;70.25;99985.06;4868247;28;20061;-65